Time;durP1;ratioP1;P1;durP2;ratioP2;P2;SDS_P1;SDS_P2;PMS_P1;PMS_P2;Temp;Humidity;BMP_temperature;BMP_pressure;BME280_temperature;BME280_humidity;BME280_pressure;Samples;Min_cycle;Max_cycle;Signal;HPM_P1;HPM_P2
2021/09/10 00:01:23;;;;;;;;;;;;;;;-142.75;99.11;75944.38;4990246;28;20004;-75
2021/09/10 00:03:48;;;;;;;;;;;;;;;-142.75;99.59;75946.34;5057848;28;19913;-75
2021/09/10 00:06:13;;;;;;;;;;;;;;;-142.75;100.00;75952.25;5058217;28;20268;-76
2021/09/10 00:08:38;;;;;;;;;;;;;;;-142.75;100.00;75958.16;5057534;28;20000;-76
2021/09/10 00:11:04;;;;;;;;;;;;;;;-142.75;100.00;75983.72;5057338;28;20279;-75
2021/09/10 00:13:29;;;;;;;;;;;;;;;-142.75;100.00;75983.72;4990333;28;19922;-76
2021/09/10 00:15:54;;;;;;;;;;;;;;;-142.75;100.00;75987.66;5057021;28;19943;-76
2021/09/10 00:18:19;;;;;;;;;;;;;;;-142.75;100.00;75983.72;4990090;28;19967;-76
2021/09/10 00:20:44;;;;;;;;;;;;;;;-142.75;100.00;75973.88;5056999;28;20305;-76
2021/09/10 00:23:10;;;;;;;;;;;;;;;-142.75;100.00;75975.84;5057444;28;20367;-76
2021/09/10 00:25:35;;;;;;;;;;;;;;;-142.75;100.00;75977.81;4990193;28;19951;-75
2021/09/10 00:28:00;;;;;;;;;;;;;;;-142.75;100.00;75979.78;5056635;28;19913;-76
2021/09/10 00:30:25;;;;;;;;;;;;;;;-142.75;100.00;75979.78;5057150;28;19914;-76
2021/09/10 00:32:50;;;;;;;;;;;;;;;-142.75;100.00;75987.66;5056938;28;19917;-75
2021/09/10 00:35:16;;;;;;;;;;;;;;;-142.75;100.00;75979.78;5056993;28;19961;-75
2021/09/10 00:37:41;;;;;;;;;;;;;;;-142.75;100.00;75966.00;4989600;28;19973;-75
2021/09/10 00:40:07;;;;;;;;;;;;;;;-142.75;100.00;75966.00;4989273;28;20333;-75
2021/09/10 00:42:32;;;;;;;;;;;;;;;-142.75;100.00;75966.00;5056669;28;19936;-75
2021/09/10 00:44:57;;;;;;;;;;;;;;;-142.75;100.00;75964.03;5057057;28;20387;-75
2021/09/10 00:47:23;;;;;;;;;;;;;;;-142.75;100.00;75981.75;5056597;28;20008;-76
2021/09/10 00:49:48;;;;;;;;;;;;;;;-142.75;100.00;75987.66;4989630;28;19924;-75
2021/09/10 00:52:13;;;;;;;;;;;;;;;-142.75;100.00;75983.72;4989613;28;20286;-75
2021/09/10 00:54:39;;;;;;;;;;;;;;;-142.75;100.00;75973.88;5056857;28;19996;-75
2021/09/10 00:57:04;;;;;;;;;;;;;;;-142.75;100.00;75973.88;4989410;28;19914;-74
2021/09/10 00:59:29;;;;;;;;;;;;;;;-142.75;100.00;75962.09;4989692;28;19963;-75
2021/09/10 01:01:55;;;;;;;;;;;;;;;-142.75;100.00;75962.09;5056338;28;19914;-75
2021/09/10 01:04:22;;;;;;;;;;;;;;;-142.75;100.00;75960.13;4989629;28;19913;-75
2021/09/10 01:06:48;;;;;;;;;;;;;;;-142.75;100.00;75960.13;5056680;28;20001;-75
2021/09/10 01:09:13;;;;;;;;;;;;;;;-142.75;100.00;75967.97;5056245;28;19964;-74
2021/09/10 01:11:39;;;;;;;;;;;;;;;-142.75;100.00;75973.88;4989034;28;19918;-75
2021/09/10 01:14:04;;;;;;;;;;;;;;;-142.75;100.00;75989.63;4989408;28;19917;-75
2021/09/10 01:16:30;;;;;;;;;;;;;;;-142.75;100.00;75999.47;4989342;28;19924;-75
2021/09/10 01:18:55;;;;;;;;;;;;;;;-142.75;100.00;76011.28;4989259;28;19921;-76
2021/09/10 01:21:20;;;;;;;;;;;;;;;-142.75;100.00;76011.28;5056167;28;19917;-76
2021/09/10 01:23:45;;;;;;;;;;;;;;;-142.75;100.00;76034.91;4989258;28;19921;-75
2021/09/10 01:26:10;;;;;;;;;;;;;;;-142.75;100.00;76032.94;5056165;28;19913;-74
2021/09/10 01:28:36;;;;;;;;;;;;;;;-142.75;100.00;76029.00;4989156;28;19913;-75
2021/09/10 01:31:01;;;;;;;;;;;;;;;-142.75;100.00;76023.09;5056009;28;19913;-75
2021/09/10 01:33:26;;;;;;;;;;;;;;;-142.75;100.00;76015.22;4989136;28;19926;-75
2021/09/10 01:35:51;;;;;;;;;;;;;;;-142.75;100.00;76011.28;5056218;28;19918;-75
2021/09/10 01:38:16;;;;;;;;;;;;;;;-142.75;100.00;75999.47;4989106;28;19979;-77
2021/09/10 01:40:42;;;;;;;;;;;;;;;-142.75;100.00;75979.78;4988728;28;20334;-75
2021/09/10 01:43:07;;;;;;;;;;;;;;;-142.75;100.00;75964.03;4989101;28;19917;-75
2021/09/10 01:45:33;;;;;;;;;;;;;;;-142.75;100.00;75956.19;4989039;28;20375;-75
2021/09/10 01:47:58;;;;;;;;;;;;;;;-142.75;100.00;75954.22;5055977;28;19925;-75
2021/09/10 01:50:25;;;;;;;;;;;;;;;-142.75;100.00;75936.50;4989080;28;19920;-76
2021/09/10 01:52:50;;;;;;;;;;;;;;;-142.75;100.00;75936.50;5054479;28;19941;-75
2021/09/10 01:55:16;;;;;;;;;;;;;;;-142.75;100.00;75934.53;4988129;28;20379;-75
2021/09/10 01:57:42;;;;;;;;;;;;;;;-142.75;100.00;75920.75;4988127;28;20393;-74
2021/09/10 02:00:07;;;;;;;;;;;;;;;-142.75;100.00;75908.94;4987917;28;19914;-75
2021/09/10 02:02:33;;;;;;;;;;;;;;;-142.75;100.00;75903.03;4981844;28;19921;-76
2021/09/10 02:04:58;;;;;;;;;;;;;;;-142.75;100.00;75895.16;4988047;28;20465;-76
2021/09/10 02:07:23;;;;;;;;;;;;;;;-142.75;100.00;75889.25;4988236;28;19921;-75
2021/09/10 02:09:49;;;;;;;;;;;;;;;-142.75;100.00;75883.34;5054850;28;19917;-75
2021/09/10 02:12:14;;;;;;;;;;;;;;;-142.75;100.00;75881.38;4988180;28;19917;-75
2021/09/10 02:14:39;;;;;;;;;;;;;;;-142.75;100.00;75891.22;4988082;28;19944;-75
2021/09/10 02:17:04;;;;;;;;;;;;;;;-142.75;100.00;75885.31;4988075;28;19914;-76
2021/09/10 02:19:30;;;;;;;;;;;;;;;-142.75;100.00;75885.31;4988254;28;19937;-77
2021/09/10 02:21:55;;;;;;;;;;;;;;;-142.75;100.00;75895.16;4971046;28;20000;-76
2021/09/10 02:24:20;;;;;;;;;;;;;;;-142.75;100.00;75891.22;4970929;28;19922;-76
2021/09/10 02:26:46;;;;;;;;;;;;;;;-142.75;100.00;75891.22;4988023;28;19992;-76
2021/09/10 02:29:11;;;;;;;;;;;;;;;-142.75;100.00;75889.25;4987925;28;19921;-76
2021/09/10 02:31:36;;;;;;;;;;;;;;;-142.75;100.00;75885.31;4988086;28;19914;-75
2021/09/10 02:34:01;;;;;;;;;;;;;;;-142.75;100.00;75881.38;4987539;28;20264;-75
2021/09/10 02:36:27;;;;;;;;;;;;;;;-142.75;100.00;75881.38;4987856;28;19921;-74
2021/09/10 02:38:53;;;;;;;;;;;;;;;-142.75;100.00;75887.28;4987766;28;19913;-74
2021/09/10 02:41:18;;;;;;;;;;;;;;;-142.75;100.00;75885.31;4987350;28;19914;-75
2021/09/10 02:43:43;;;;;;;;;;;;;;;-142.75;100.00;75883.34;4987764;28;19921;-75
2021/09/10 02:46:08;;;;;;;;;;;;;;;-142.75;100.00;75881.38;5054743;28;20310;-75
2021/09/10 02:48:35;;;;;;;;;;;;;;;-142.75;100.00;75883.34;4987732;28;19930;-75
2021/09/10 02:51:00;;;;;;;;;;;;;;;-142.75;100.00;75879.41;4988155;28;20004;-74
2021/09/10 02:53:25;;;;;;;;;;;;;;;-142.75;100.00;75881.38;4987608;28;19971;-73
2021/09/10 02:55:50;;;;;;;;;;;;;;;-142.75;100.00;75877.44;4987403;28;19914;-76
2021/09/10 02:58:15;;;;;;;;;;;;;;;-142.75;100.00;75865.63;4987767;28;19964;-76
2021/09/10 03:00:41;;;;;;;;;;;;;;;-142.75;100.00;75869.56;4987392;28;20435;-75
2021/09/10 03:03:06;;;;;;;;;;;;;;;-142.75;100.00;75877.44;4970095;28;19940;-76
2021/09/10 03:05:32;;;;;;;;;;;;;;;-142.75;100.00;75879.41;4990653;28;19941;-74
2021/09/10 03:07:57;;;;;;;;;;;;;;;-142.75;100.00;75889.25;4990707;28;20382;-74
2021/09/10 03:10:22;;;;;;;;;;;;;;;-142.75;100.00;75897.13;4990470;28;19914;-74
2021/09/10 03:12:48;;;;;;;;;;;;;;;-142.75;100.00;75897.13;4990968;28;19924;-74
2021/09/10 03:15:13;;;;;;;;;;;;;;;-142.75;100.00;75893.19;5057926;28;19922;-75
2021/09/10 03:17:38;;;;;;;;;;;;;;;-142.75;100.00;75897.13;4990979;28;19975;-75
2021/09/10 03:20:04;;;;;;;;;;;;;;;-142.75;100.00;75895.16;4991013;28;19914;-75
2021/09/10 03:22:29;;;;;;;;;;;;;;;-142.75;100.00;75889.25;4973392;28;19925;-75
2021/09/10 03:24:54;;;;;;;;;;;;;;;-142.75;100.00;75895.16;5030148;28;19913;-75
2021/09/10 03:27:19;;;;;;;;;;;;;;;-142.75;100.00;75897.13;4973279;28;19913;-75
2021/09/10 03:29:45;;;;;;;;;;;;;;;-142.75;100.00;75906.97;4990885;28;20019;-75
2021/09/10 03:32:10;;;;;;;;;;;;;;;-142.75;100.00;75906.97;4990527;28;19918;-76
2021/09/10 03:34:35;;;;;;;;;;;;;;;-142.75;100.00;75905.00;4990607;28;19967;-74
2021/09/10 03:37:00;;;;;;;;;;;;;;;-142.75;100.00;75895.16;4990200;28;19929;-75
2021/09/10 03:39:25;;;;;;;;;;;;;;;-142.75;100.00;75897.13;4990378;28;19914;-74
2021/09/10 03:41:51;;;;;;;;;;;;;;;-142.75;100.00;75908.94;4989915;28;19913;-75
2021/09/10 03:44:16;;;;;;;;;;;;;;;-142.75;100.00;75908.94;5057778;28;19921;-74
2021/09/10 03:46:41;;;;;;;;;;;;;;;-142.75;100.00;75906.97;4990090;28;19914;-75
2021/09/10 03:49:06;;;;;;;;;;;;;;;-142.75;100.00;75908.94;4990388;28;20012;-74
2021/09/10 03:51:32;;;;;;;;;;;;;;;-142.75;100.00;75905.00;5057375;28;20341;-74
2021/09/10 03:53:57;;;;;;;;;;;;;;;-142.75;100.00;75905.00;4989740;28;20020;-74
2021/09/10 03:56:23;;;;;;;;;;;;;;;-142.75;100.00;75903.03;4990057;28;19959;-75
2021/09/10 03:58:48;;;;;;;;;;;;;;;-142.75;100.00;75906.97;4989729;28;20576;-74
2021/09/10 04:01:13;;;;;;;;;;;;;;;-142.75;100.00;75910.91;4989532;28;19959;-75
2021/09/10 04:03:38;;;;;;;;;;;;;;;-142.75;100.00;75932.56;4989789;28;19914;-74
2021/09/10 04:06:04;;;;;;;;;;;;;;;-142.75;100.00;75932.56;4989924;28;20383;-74
2021/09/10 04:08:29;;;;;;;;;;;;;;;-142.75;100.00;75924.69;4997099;23;19969;-77
2021/09/10 04:10:54;;;;;;;;;;;;;;;-142.75;100.00;75928.63;4995112;28;19932;-77
2021/09/10 04:13:19;;;;;;;;;;;;;;;-142.75;100.00;75922.72;4993075;28;19925;-78
2021/09/10 04:15:44;;;;;;;;;;;;;;;-142.75;100.00;75932.56;4990959;28;19914;-77
2021/09/10 04:18:10;;;;;;;;;;;;;;;-142.75;100.00;75928.63;4992549;28;20008;-77
2021/09/10 04:20:35;;;;;;;;;;;;;;;-142.75;100.00;75932.56;4997726;28;19925;-78
2021/09/10 04:23:00;;;;;;;;;;;;;;;-142.75;100.00;75934.53;4991965;28;19992;-78
2021/09/10 04:25:25;;;;;;;;;;;;;;;-142.75;100.00;75944.38;5006732;28;19952;-77
2021/09/10 04:27:51;;;;;;;;;;;;;;;-142.75;100.00;75940.44;5007540;28;20359;-78
2021/09/10 04:30:16;;;;;;;;;;;;;;;-142.75;100.00;75942.41;4994472;28;20019;-78
2021/09/10 04:32:41;;;;;;;;;;;;;;;-142.75;100.00;75936.50;5005410;28;19922;-78
2021/09/10 04:35:07;;;;;;;;;;;;;;;-142.75;100.00;75934.53;5008144;28;19978;-77
2021/09/10 04:37:32;;;;;;;;;;;;;;;-142.75;100.00;75942.41;4994001;28;19913;-78
2021/09/10 04:39:58;;;;;;;;;;;;;;;-142.75;100.00;75938.47;5011841;28;19919;-77
2021/09/10 04:42:23;;;;;;;;;;;;;;;-142.75;100.00;75942.41;4992609;28;19920;-78
2021/09/10 04:44:48;;;;;;;;;;;;;;;-142.75;100.00;75928.63;5001243;28;19913;-77
2021/09/10 04:47:13;;;;;;;;;;;;;;;-142.75;100.00;75940.44;5002544;28;19918;-78
2021/09/10 04:49:40;;;;;;;;;;;;;;;-142.75;100.00;75936.50;5000774;28;19982;-78
2021/09/10 04:52:05;;;;;;;;;;;;;;;-142.75;100.00;75928.63;5009286;28;19920;-77
2021/09/10 04:54:31;;;;;;;;;;;;;;;-142.75;100.00;75942.41;4993194;28;19913;-76
2021/09/10 04:56:56;;;;;;;;;;;;;;;-142.75;100.00;75936.50;5005215;28;19999;-78
2021/09/10 04:59:21;;;;;;;;;;;;;;;-142.75;100.00;75934.53;4991499;28;19913;-78
2021/09/10 05:01:47;;;;;;;;;;;;;;;-142.75;100.00;75940.44;4999223;28;19920;-77
2021/09/10 05:04:12;;;;;;;;;;;;;;;-142.75;100.00;75948.31;4994503;28;19921;-78
2021/09/10 05:06:38;;;;;;;;;;;;;;;-142.75;100.00;75952.25;4991740;28;19917;-76
2021/09/10 05:09:03;;;;;;;;;;;;;;;-142.75;100.00;75944.38;4998488;28;19920;-78
2021/09/10 05:11:28;;;;;;;;;;;;;;;-142.75;100.00;75944.38;5012329;28;19913;-79
2021/09/10 05:13:53;;;;;;;;;;;;;;;-142.75;100.00;75944.38;5012887;28;19960;-78
2021/09/10 05:16:19;;;;;;;;;;;;;;;-142.75;100.00;75950.28;5006744;28;20335;-77
2021/09/10 05:18:44;;;;;;;;;;;;;;;-142.75;100.00;75938.47;4992834;28;19921;-78
2021/09/10 05:21:09;;;;;;;;;;;;;;;-142.75;100.00;75940.44;4992807;28;19920;-77
2021/09/10 05:23:34;;;;;;;;;;;;;;;-142.75;100.00;75944.38;4990301;28;19960;-79
2021/09/10 05:25:59;;;;;;;;;;;;;;;-142.75;100.00;75948.31;4991492;28;19948;-78
2021/09/10 05:28:24;;;;;;;;;;;;;;;-142.75;100.00;75960.13;4991871;28;19971;-77
2021/09/10 05:30:50;;;;;;;;;;;;;;;-142.75;100.00;75960.13;4991761;28;19962;-78
2021/09/10 05:33:15;;;;;;;;;;;;;;;-142.75;100.00;75966.00;5010770;28;19979;-77
2021/09/10 05:35:40;;;;;;;;;;;;;;;-142.75;100.00;75997.50;5009459;28;19913;-78
2021/09/10 05:38:05;;;;;;;;;;;;;;;-142.75;100.00;75993.56;4989646;28;19920;-78
2021/09/10 05:40:31;;;;;;;;;;;;;;;-142.75;100.00;75991.59;4992230;28;19914;-78
2021/09/10 05:42:56;;;;;;;;;;;;;;;-142.75;100.00;75987.66;4991279;28;20379;-78
2021/09/10 05:45:21;;;;;;;;;;;;;;;-142.75;100.00;75987.66;4990573;28;19918;-78
2021/09/10 05:47:46;;;;;;;;;;;;;;;-142.75;100.00;75983.72;4990126;28;19960;-77
2021/09/10 05:50:11;;;;;;;;;;;;;;;-142.75;100.00;75989.63;4996153;28;20009;-78
2021/09/10 05:52:37;;;;;;;;;;;;;;;-142.75;100.00;75989.63;4996858;28;20564;-77
2021/09/10 05:55:02;;;;;;;;;;;;;;;-142.75;100.00;75991.59;4991104;28;19914;-77
2021/09/10 05:57:27;;;;;;;;;;;;;;;-142.75;100.00;75983.72;4991534;28;19913;-77
2021/09/10 05:59:52;;;;;;;;;;;;;;;-142.75;100.00;75971.91;4989787;28;19914;-77
2021/09/10 06:02:18;;;;;;;;;;;;;;;-142.75;100.00;75964.03;4988542;28;19914;-78
2021/09/10 06:04:43;;;;;;;;;;;;;;;-142.75;100.00;75956.19;4995963;28;19920;-77
2021/09/10 06:07:08;;;;;;;;;;;;;;;-142.75;100.00;75958.16;4993389;28;19939;-78
2021/09/10 06:09:33;;;;;;;;;;;;;;;-142.75;100.00;75952.25;4992938;28;20289;-78
2021/09/10 06:11:59;;;;;;;;;;;;;;;-142.75;100.00;75932.56;4996194;28;19913;-78
2021/09/10 06:14:24;;;;;;;;;;;;;;;-142.75;100.00;75893.19;5010568;28;20415;-77
2021/09/10 06:16:49;;;;;;;;;;;;;;;-142.75;100.00;75853.84;5010031;28;19936;-78
2021/09/10 06:19:14;;;;;;;;;;;;;;;-142.75;100.00;75802.66;5007364;28;20386;-77
2021/09/10 06:21:39;;;;;;;;;;;;;;;-142.75;98.67;75767.22;4991577;28;19948;-78
2021/09/10 06:24:05;;;;;;;;;;;;;;;-142.75;95.72;75786.91;4992122;28;19914;-77
2021/09/10 06:26:30;;;;;;;;;;;;;;;-142.75;94.21;75784.94;4993558;28;19914;-78
2021/09/10 06:28:55;;;;;;;;;;;;;;;-142.75;93.88;75792.81;4992342;28;19913;-77
2021/09/10 06:31:20;;;;;;;;;;;;;;;-142.75;94.85;75755.44;4990664;28;19913;-78
2021/09/10 06:33:45;;;;;;;;;;;;;;;-142.75;93.91;75700.31;4991076;28;19918;-78
2021/09/10 06:36:10;;;;;;;;;;;;;;;-142.75;89.91;75659.00;4994343;28;19921;-77
2021/09/10 06:38:36;;;;;;;;;;;;;;;-142.75;86.04;75635.38;4992744;28;19922;-77
2021/09/10 06:41:01;;;;;;;;;;;;;;;-142.75;84.59;75649.16;4997203;28;20000;-77
2021/09/10 06:43:26;;;;;;;;;;;;;;;-142.75;84.13;75664.91;5010604;28;19935;-78
2021/09/10 06:45:51;;;;;;;;;;;;;;;-142.75;84.92;75692.44;5011662;28;19920;-78
2021/09/10 06:48:16;;;;;;;;;;;;;;;-142.75;85.22;75696.38;5015642;28;19921;-78
2021/09/10 06:50:42;;;;;;;;;;;;;;;-142.75;86.16;75672.78;5009565;28;19992;-78
2021/09/10 06:53:08;;;;;;;;;;;;;;;-142.75;86.13;75637.34;4998884;28;19917;-79
2021/09/10 06:55:34;;;;;;;;;;;;;;;-142.75;83.68;75609.78;5004522;28;19922;-78
2021/09/10 06:57:59;;;;;;;;;;;;;;;-142.75;82.39;75558.63;5010310;28;19928;-78
2021/09/10 07:00:24;;;;;;;;;;;;;;;-142.75;78.74;75513.38;5013965;28;19919;-79
2021/09/10 07:02:49;;;;;;;;;;;;;;;-142.75;77.34;75448.41;5003012;28;19921;-79
2021/09/10 07:05:14;;;;;;;;;;;;;;;-142.75;73.16;75444.47;4999363;28;19941;-77
2021/09/10 07:07:40;;;;;;;;;;;;;;;-142.75;72.18;75407.09;5005708;28;19990;-79
2021/09/10 07:10:05;;;;;;;;;;;;;;;-142.75;71.81;75424.81;4995822;28;19917;-78
2021/09/10 07:12:30;;;;;;;;;;;;;;;-142.75;72.55;75466.13;5004297;28;19940;-78
2021/09/10 07:14:55;;;;;;;;;;;;;;;-142.75;71.96;75438.56;4997260;28;19913;-80
2021/09/10 07:17:22;;;;;;;;;;;;;;;-142.75;72.43;75432.69;5010557;28;19921;-77
2021/09/10 07:19:47;;;;;;;;;;;;;;;-142.75;72.62;75523.19;5010074;28;19913;-78
2021/09/10 07:22:12;;;;;;;;;;;;;;;-142.75;74.08;75474.00;4993835;28;19962;-79
2021/09/10 07:24:37;;;;;;;;;;;;;;;-142.75;72.67;75391.34;4993015;28;20025;-78
2021/09/10 07:27:03;;;;;;;;;;;;;;;-142.75;69.07;75298.84;4993167;28;19918;-79
2021/09/10 07:29:28;;;;;;;;;;;;;;;-142.75;65.21;75322.47;4993464;28;19918;-80
2021/09/10 07:31:53;;;;;;;;;;;;;;;-142.75;65.52;75361.84;4994475;28;19925;-78
2021/09/10 07:34:18;;;;;;;;;;;;;;;-142.75;67.89;75430.72;4995608;28;20446;-77
2021/09/10 07:36:53;;;;;;;;;;;;;;;-142.75;68.60;75373.63;5003414;28;19917;-76
2021/09/10 07:39:19;;;;;;;;;;;;;;;-142.75;66.75;75294.94;4991183;28;20325;-77
2021/09/10 07:41:45;;;;;;;;;;;;;;;-142.75;64.91;75296.88;4990553;28;19971;-78
2021/09/10 07:44:10;;;;;;;;;;;;;;;-142.75;63.30;75281.16;4999556;28;19917;-79
2021/09/10 07:46:35;;;;;;;;;;;;;;;-142.75;61.70;75172.91;4994183;28;19924;-77
2021/09/10 07:49:00;;;;;;;;;;;;;;;-142.75;60.56;75113.88;5003624;28;19920;-78
2021/09/10 07:51:26;;;;;;;;;;;;;;;-142.75;59.49;75151.28;5006788;28;19957;-78
2021/09/10 07:53:51;;;;;;;;;;;;;;;-142.75;59.77;75261.47;4993546;28;19924;-80
2021/09/10 07:56:16;;;;;;;;;;;;;;;-142.75;61.12;75212.28;4997539;28;19914;-78
2021/09/10 07:58:41;;;;;;;;;;;;;;;-142.75;61.73;75267.38;4995168;28;19936;-78
2021/09/10 08:01:07;;;;;;;;;;;;;;;-142.75;60.74;75090.28;4995291;28;20028;-78
2021/09/10 08:03:34;;;;;;;;;;;;;;;-142.75;58.25;75011.56;5007816;28;19983;-79
2021/09/10 08:05:59;;;;;;;;;;;;;;;-142.75;55.45;74976.16;5010268;28;19918;-78
2021/09/10 08:08:24;;;;;;;;;;;;;;;-142.75;54.63;74995.81;5001421;28;19918;-78
2021/09/10 08:10:49;;;;;;;;;;;;;;;-142.75;55.28;75066.66;5014450;28;19917;-78
2021/09/10 08:13:14;;;;;;;;;;;;;;;-142.75;56.92;75141.44;4996515;28;19917;-78
2021/09/10 08:15:39;;;;;;;;;;;;;;;-142.75;57.42;75165.03;4995311;28;19929;-78
2021/09/10 08:18:05;;;;;;;;;;;;;;;-142.75;57.60;75184.72;5006431;28;19913;-79
2021/09/10 08:20:30;;;;;;;;;;;;;;;-142.75;58.82;75192.59;5003127;28;19917;-78
2021/09/10 08:22:55;;;;;;;;;;;;;;;-142.75;59.72;75119.78;5008879;28;19917;-79
2021/09/10 08:25:20;;;;;;;;;;;;;;;-142.75;59.60;75255.56;5010195;28;20335;-78
2021/09/10 08:27:45;;;;;;;;;;;;;;;-142.75;60.10;75165.03;4995068;28;19914;-79
2021/09/10 08:30:11;;;;;;;;;;;;;;;-142.75;59.85;75167.00;5001612;28;19953;-78
2021/09/10 08:32:36;;;;;;;;;;;;;;;-142.75;58.51;75151.28;5011255;28;20402;-78
2021/09/10 08:35:01;;;;;;;;;;;;;;;-142.75;58.46;75184.72;4996390;28;19963;-79
2021/09/10 08:37:27;;;;;;;;;;;;;;;-142.75;58.66;75212.28;5009915;28;19914;-78
2021/09/10 08:39:53;;;;;;;;;;;;;;;-142.75;61.71;75361.84;4992236;28;19917;-78
2021/09/10 08:42:18;;;;;;;;;;;;;;;-142.75;61.83;75306.72;5012980;28;19965;-79
2021/09/10 08:44:44;;;;;;;;;;;;;;;-142.75;61.78;75294.94;5003154;28;19982;-78
2021/09/10 08:47:10;;;;;;;;;;;;;;;-142.75;61.49;75316.56;4995602;28;19920;-79
2021/09/10 08:49:35;;;;;;;;;;;;;;;-142.75;63.79;75365.75;5000446;28;19928;-78
2021/09/10 08:52:00;;;;;;;;;;;;;;;-142.75;63.64;75379.53;4991417;28;19914;-80
2021/09/10 08:54:26;;;;;;;;;;;;;;;-142.75;64.49;75405.13;4998295;28;19917;-78
2021/09/10 08:56:51;;;;;;;;;;;;;;;-142.75;64.84;75405.13;5003598;28;19913;-78
2021/09/10 08:59:17;;;;;;;;;;;;;;;-142.75;66.47;75436.59;5005160;28;19920;-78
2021/09/10 09:01:47;;;;;;;;;;;;;;;-142.75;67.24;75456.28;4996541;28;20004;-78
2021/09/10 09:04:13;;;;;;;;;;;;;;;-142.75;67.75;75468.09;5005528;28;19913;-78
2021/09/10 09:06:38;;;;;;;;;;;;;;;-142.75;68.75;75474.00;4995875;28;19928;-78
2021/09/10 09:09:03;;;;;;;;;;;;;;;-142.75;69.50;75493.69;5008236;28;19932;-79
2021/09/10 09:11:29;;;;;;;;;;;;;;;-142.75;70.22;75523.19;4995454;28;19920;-78
2021/09/10 09:13:56;;;;;;;;;;;;;;;-142.75;69.78;75521.22;4995173;28;20399;-81
2021/09/10 09:16:26;;;;;;;;;;;;;;;-142.75;70.18;75546.81;4994421;28;19914;-78
2021/09/10 09:18:58;;;;;;;;;;;;;;;-142.75;70.83;75552.72;4995877;28;19967;-78
2021/09/10 09:21:25;;;;;;;;;;;;;;;-142.75;69.37;75525.16;5005180;28;20011;-77
2021/09/10 09:23:52;;;;;;;;;;;;;;;-142.75;70.58;75562.56;4992564;28;19936;-80
2021/09/10 09:26:19;;;;;;;;;;;;;;;-142.75;71.29;75501.56;5002290;28;19918;-79
2021/09/10 09:28:46;;;;;;;;;;;;;;;-142.75;68.73;75438.56;4991901;28;19967;-80
2021/09/10 09:31:12;;;;;;;;;;;;;;;-142.75;66.73;75413.00;4994699;28;19944;-79
2021/09/10 09:33:41;;;;;;;;;;;;;;;-142.75;65.09;75383.47;5000670;28;19922;-78
2021/09/10 09:36:10;;;;;;;;;;;;;;;-142.75;63.68;75357.91;5012404;28;19913;-78
2021/09/10 09:38:36;;;;;;;;;;;;;;;-142.75;64.70;75381.50;4997115;28;19917;-79
2021/09/10 09:41:01;;;;;;;;;;;;;;;-142.75;65.25;75338.22;4994454;28;19981;-78
2021/09/10 09:43:28;;;;;;;;;;;;;;;-142.75;63.10;75294.94;4995570;28;20447;-78
2021/09/10 09:45:53;;;;;;;;;;;;;;;-142.75;63.65;75314.59;5001740;28;19920;-77
2021/09/10 09:48:19;;;;;;;;;;;;;;;-142.75;62.84;75320.50;4992909;28;19913;-79
2021/09/10 09:50:45;;;;;;;;;;;;;;;-142.75;63.09;75320.50;4990416;28;19985;-78
2021/09/10 09:53:12;;;;;;;;;;;;;;;-142.75;63.15;75314.59;4992960;28;19918;-80
2021/09/10 09:55:38;;;;;;;;;;;;;;;-142.75;61.78;75302.78;5003047;28;19925;-79
2021/09/10 09:58:04;;;;;;;;;;;;;;;-142.75;62.57;75318.53;4999661;28;19913;-78
2021/09/10 10:00:30;;;;;;;;;;;;;;;-142.75;62.62;75279.19;5005733;28;19914;-81
2021/09/10 10:02:55;;;;;;;;;;;;;;;-142.75;61.65;75267.38;4991616;28;19925;-81
2021/09/10 10:05:21;;;;;;;;;;;;;;;-142.75;63.12;75332.31;5005630;28;19935;-79
2021/09/10 10:07:56;;;;;;;;;;;;;;;-142.75;61.84;75291.00;4994650;28;20366;-80
2021/09/10 10:10:24;;;;;;;;;;;;;;;-142.75;61.86;75273.28;4985985;23;19922;-75
2021/09/10 10:12:50;;;;;;;;;;;;;;;-142.75;61.13;75253.59;4986081;28;20420;-74
2021/09/10 10:15:19;;;;;;;;;;;;;;;-142.75;61.78;75265.41;4991437;28;19960;-74
2021/09/10 10:17:44;;;;;;;;;;;;;;;-142.75;62.55;75279.19;4992184;28;19917;-74
2021/09/10 10:20:14;;;;;;;;;;;;;;;-142.75;62.95;75271.31;4991785;28;19914;-75
2021/09/10 10:22:40;;;;;;;;;;;;;;;-142.75;61.46;75247.69;4991454;28;19921;-74
2021/09/10 10:25:06;;;;;;;;;;;;;;;-142.75;61.06;75273.28;4982733;28;19945;-75
2021/09/10 10:27:39;;;;;;;;;;;;;;;-142.75;62.49;75344.13;4975303;28;20150;-75
2021/09/10 10:30:06;;;;;;;;;;;;;;;-142.75;63.07;75304.75;4973020;28;19983;-76
2021/09/10 10:32:31;;;;;;;;;;;;;;;-142.75;62.11;75283.13;4991605;28;19983;-74
2021/09/10 10:35:23;;;;;;;;;;;;;;;-142.75;60.91;75292.97;4978201;28;19918;-74
2021/09/10 10:38:08;;;;;;;;;;;;;;;-142.75;62.29;75291.00;4973061;28;19968;-75
2021/09/10 10:40:34;;;;;;;;;;;;;;;-142.75;63.58;75418.91;4981940;28;19927;-77
2021/09/10 10:43:03;;;;;;;;;;;;;;;-142.75;63.64;75365.75;4974607;28;19920;-75
2021/09/10 10:45:46;;;;;;;;;;;;;;;-142.75;62.81;75346.09;4991855;28;19913;-76
2021/09/10 10:48:31;;;;;;;;;;;;;;;-142.75;63.03;75348.06;4982677;28;20326;-75
2021/09/10 10:50:57;;;;;;;;;;;;;;;-142.75;62.75;75365.75;4973952;28;19914;-75
2021/09/10 10:53:22;;;;;;;;;;;;;;;-142.75;61.80;75350.03;4981261;28;19921;-75
2021/09/10 10:55:48;;;;;;;;;;;;;;;-142.75;62.76;75363.78;4972055;28;19920;-76
2021/09/10 10:58:22;;;;;;;;;;;;;;;-142.75;62.73;75346.09;4971723;28;20005;-76
2021/09/10 11:00:49;;;;;;;;;;;;;;;-142.75;62.59;75332.31;4992163;28;20379;-75
2021/09/10 11:03:14;;;;;;;;;;;;;;;-142.75;62.58;75316.56;4981842;28;19961;-74
2021/09/10 11:05:43;;;;;;;;;;;;;;;-142.75;61.78;75283.13;4972184;28;20383;-74
2021/09/10 11:08:08;;;;;;;;;;;;;;;-142.75;60.50;75265.41;4986811;28;19922;-74
2021/09/10 11:10:34;;;;;;;;;;;;;;;-142.75;59.57;75239.81;4983353;28;19914;-76
2021/09/10 11:12:59;;;;;;;;;;;;;;;-142.75;58.97;75206.38;4989814;28;19918;-75
2021/09/10 11:15:27;;;;;;;;;;;;;;;-142.75;59.04;75190.63;4979514;28;19937;-75
2021/09/10 11:17:57;;;;;;;;;;;;;;;-142.75;58.12;75141.44;4986819;28;19964;-75
2021/09/10 11:20:30;;;;;;;;;;;;;;;-142.75;56.65;75106.00;4971820;28;19918;-75
2021/09/10 11:22:56;;;;;;;;;;;;;;;-142.75;54.77;75121.75;4978736;28;19944;-75
2021/09/10 11:25:21;;;;;;;;;;;;;;;-142.75;56.46;75139.47;4968462;28;19914;-75
2021/09/10 11:27:46;;;;;;;;;;;;;;;-142.75;56.67;75216.22;4977909;28;20413;-74
2021/09/10 11:30:12;;;;;;;;;;;;;;;-142.75;58.39;75257.53;4983090;28;20334;-75
2021/09/10 11:32:38;;;;;;;;;;;;;;;-142.75;60.51;75296.88;4973373;28;20439;-74
2021/09/10 11:35:15;;;;;;;;;;;;;;;-142.75;61.37;75312.63;4970941;28;19920;-74
2021/09/10 11:37:49;;;;;;;;;;;;;;;-142.75;61.47;75330.34;4974861;28;19914;-75
2021/09/10 11:40:14;;;;;;;;;;;;;;;-142.75;60.75;75338.22;4970935;28;20450;-74
2021/09/10 11:42:40;;;;;;;;;;;;;;;-142.75;60.74;75350.03;4981922;28;20024;-76
2021/09/10 11:45:09;;;;;;;;;;;;;;;-142.75;60.51;75353.97;4976725;28;20372;-75
2021/09/10 11:47:35;;;;;;;;;;;;;;;-142.75;61.33;75359.88;4971161;28;19914;-75
2021/09/10 11:50:01;;;;;;;;;;;;;;;-142.75;63.21;75403.16;4965094;28;20414;-75
2021/09/10 11:52:36;;;;;;;;;;;;;;;-142.75;61.77;75403.16;4990508;28;19914;-75
2021/09/10 11:55:12;;;;;;;;;;;;;;;-142.75;62.80;75393.31;4971303;28;19913;-76
2021/09/10 11:57:39;;;;;;;;;;;;;;;-142.75;62.78;75391.34;4970881;28;19921;-76
2021/09/10 12:00:09;;;;;;;;;;;;;;;-142.75;62.09;75403.16;4972313;28;20010;-75
2021/09/10 12:02:34;;;;;;;;;;;;;;;-142.75;62.64;75444.47;4987517;28;19964;-76
2021/09/10 12:05:01;;;;;;;;;;;;;;;-142.75;63.56;75448.41;4987616;28;20017;-74
2021/09/10 12:07:30;;;;;;;;;;;;;;;-142.75;64.82;75448.41;5021558;28;19921;-75
2021/09/10 12:09:55;;;;;;;;;;;;;;;-142.75;64.76;75479.91;4970584;28;19926;-74
2021/09/10 12:12:25;;;;;;;;;;;;;;;-142.75;66.01;75515.31;4989302;28;20012;-73
2021/09/10 12:14:53;;;;;;;;;;;;;;;-142.75;66.07;75485.81;4973724;28;20333;-75
2021/09/10 12:17:24;;;;;;;;;;;;;;;-142.75;66.30;75493.69;4979533;28;19921;-74